sensor_id;sensor_type;location;lat;lon;timestamp;pressure;altitude;pressure_sealevel;temperature;humidity
21449;BME280;10885;52.830;13.788;2024-03-08T04:22:40;101909.59;;;-2.43;80.52
21449;BME280;10885;52.830;13.788;2024-03-08T04:27:42;101915.34;;;-2.31;81.56
21449;BME280;10885;52.830;13.788;2024-03-08T04:32:46;101912.06;;;-2.24;80.73
21449;BME280;10885;52.830;13.788;2024-03-08T04:37:49;101905.81;;;-2.21;80.46
21449;BME280;10885;52.830;13.788;2024-03-08T04:42:52;101903.91;;;-2.29;79.93
21449;BME280;10885;52.830;13.788;2024-03-08T04:47:55;101897.47;;;-2.40;80.75
21449;BME280;10885;52.830;13.788;2024-03-08T04:52:59;101897.19;;;-2.35;80.42
21449;BME280;10885;52.830;13.788;2024-03-08T04:58:01;101914.44;;;-2.31;80.15
21449;BME280;10885;52.830;13.788;2024-03-08T05:03:06;101904.94;;;-2.52;80.13
21449;BME280;10885;52.830;13.788;2024-03-08T05:08:09;101901.31;;;-2.67;81.23
21449;BME280;10885;52.830;13.788;2024-03-08T05:13:11;101897.56;;;-2.76;81.30
21449;BME280;10885;52.830;13.788;2024-03-08T05:18:15;101901.31;;;-2.67;81.45
21449;BME280;10885;52.830;13.788;2024-03-08T05:23:18;101900.56;;;-2.79;81.13
21449;BME280;10885;52.830;13.788;2024-03-08T05:28:22;101895.56;;;-2.97;82.11
21449;BME280;10885;52.830;13.788;2024-03-08T05:33:24;101894.44;;;-2.81;81.72
21449;BME280;10885;52.830;13.788;2024-03-08T05:38:27;101894.56;;;-2.74;81.60
21449;BME280;10885;52.830;13.788;2024-03-08T05:43:30;101899.22;;;-2.83;80.99
21449;BME280;10885;52.830;13.788;2024-03-08T05:48:33;101897.16;;;-2.80;81.48
21449;BME280;10885;52.830;13.788;2024-03-08T05:53:35;101889.47;;;-2.68;81.35
21449;BME280;10885;52.830;13.788;2024-03-08T05:58:38;101886.94;;;-2.68;81.14
21449;BME280;10885;52.830;13.788;2024-03-08T06:03:41;101886.28;;;-2.67;81.52
21449;BME280;10885;52.830;13.788;2024-03-08T06:08:48;101891.69;;;-2.64;81.34
21449;BME280;10885;52.830;13.788;2024-03-08T06:13:53;101893.56;;;-2.69;82.56
21449;BME280;10885;52.830;13.788;2024-03-08T06:19:02;101885.75;;;-2.33;83.11
21449;BME280;10885;52.830;13.788;2024-03-08T06:24:05;101889.00;;;-2.09;83.31
21449;BME280;10885;52.830;13.788;2024-03-08T06:29:08;101891.00;;;-1.81;82.94
21449;BME280;10885;52.830;13.788;2024-03-08T06:34:10;101893.34;;;-1.82;82.72
21449;BME280;10885;52.830;13.788;2024-03-08T06:39:14;101884.56;;;-1.53;83.28
21449;BME280;10885;52.830;13.788;2024-03-08T06:44:16;101888.75;;;-1.21;82.91
21449;BME280;10885;52.830;13.788;2024-03-08T06:49:19;101895.47;;;-0.94;82.13
21449;BME280;10885;52.830;13.788;2024-03-08T06:54:22;101890.72;;;-0.65;82.42
21449;BME280;10885;52.830;13.788;2024-03-08T06:59:24;101902.91;;;-0.28;82.58
21449;BME280;10885;52.830;13.788;2024-03-08T07:04:27;101898.88;;;0.14;82.56
21449;BME280;10885;52.830;13.788;2024-03-08T07:09:32;101898.03;;;0.55;81.68
21449;BME280;10885;52.830;13.788;2024-03-08T07:14:36;101904.84;;;0.97;79.91
21449;BME280;10885;52.830;13.788;2024-03-08T07:19:43;101895.72;;;1.41;79.02
21449;BME280;10885;52.830;13.788;2024-03-08T07:24:46;101904.94;;;1.84;77.74
21449;BME280;10885;52.830;13.788;2024-03-08T07:29:51;101895.13;;;2.23;75.63
21449;BME280;10885;52.830;13.788;2024-03-08T07:35:09;101894.63;;;2.63;74.17
21449;BME280;10885;52.830;13.788;2024-03-08T07:40:13;101889.19;;;3.04;73.10
21449;BME280;10885;52.830;13.788;2024-03-08T07:45:16;101891.31;;;3.38;71.42
21449;BME280;10885;52.830;13.788;2024-03-08T07:50:19;101884.44;;;3.84;70.29
21449;BME280;10885;52.830;13.788;2024-03-08T07:55:21;101879.50;;;4.24;68.40
21449;BME280;10885;52.830;13.788;2024-03-08T08:00:26;101877.78;;;4.48;67.64
21449;BME280;10885;52.830;13.788;2024-03-08T08:05:29;101874.47;;;4.96;67.51
21449;BME280;10885;52.830;13.788;2024-03-08T08:10:34;101869.66;;;5.49;65.25
21449;BME280;10885;52.830;13.788;2024-03-08T08:15:37;101863.81;;;5.83;62.40
21449;BME280;10885;52.830;13.788;2024-03-08T08:20:40;101858.25;;;6.29;62.17
21449;BME280;10885;52.830;13.788;2024-03-08T08:25:42;101858.25;;;6.82;59.48
21449;BME280;10885;52.830;13.788;2024-03-08T08:30:45;101855.09;;;7.19;58.04
21449;BME280;10885;52.830;13.788;2024-03-08T08:35:48;101850.66;;;7.81;56.17
21449;BME280;10885;52.830;13.788;2024-03-08T08:40:54;101839.41;;;8.63;53.88
21449;BME280;10885;52.830;13.788;2024-03-08T08:45:57;101823.31;;;9.52;50.64
21449;BME280;10885;52.830;13.788;2024-03-08T08:50:59;101834.31;;;10.53;48.37
21449;BME280;10885;52.830;13.788;2024-03-08T08:56:02;101830.56;;;12.37;45.15
21449;BME280;10885;52.830;13.788;2024-03-08T09:01:05;101820.56;;;17.41;34.68
21449;BME280;10885;52.830;13.788;2024-03-08T09:06:08;101820.78;;;20.16;28.84
21449;BME280;10885;52.830;13.788;2024-03-08T09:11:12;101811.53;;;22.06;25.65
21449;BME280;10885;52.830;13.788;2024-03-08T09:16:15;101808.09;;;23.80;24.58
21449;BME280;10885;52.830;13.788;2024-03-08T09:21:18;101809.53;;;24.34;22.91
21449;BME280;10885;52.830;13.788;2024-03-08T09:26:24;101817.22;;;26.39;22.84
21449;BME280;10885;52.830;13.788;2024-03-08T09:31:31;101811.38;;;26.07;21.28
21449;BME280;10885;52.830;13.788;2024-03-08T09:36:34;101806.31;;;26.16;20.54
21449;BME280;10885;52.830;13.788;2024-03-08T09:41:36;101808.50;;;25.90;21.05
21449;BME280;10885;52.830;13.788;2024-03-08T09:46:42;101790.13;;;23.59;22.30
21449;BME280;10885;52.830;13.788;2024-03-08T09:51:45;101790.25;;;22.73;23.76
21449;BME280;10885;52.830;13.788;2024-03-08T09:56:48;101783.91;;;21.86;24.44
21449;BME280;10885;52.830;13.788;2024-03-08T10:01:54;101773.63;;;20.51;26.66
21449;BME280;10885;52.830;13.788;2024-03-08T10:07:01;101772.28;;;18.62;31.42
21449;BME280;10885;52.830;13.788;2024-03-08T10:12:04;101763.53;;;17.72;33.20
21449;BME280;10885;52.830;13.788;2024-03-08T10:17:07;101740.41;;;16.77;32.97
21449;BME280;10885;52.830;13.788;2024-03-08T10:22:15;101744.59;;;16.28;37.34
21449;BME280;10885;52.830;13.788;2024-03-08T10:27:18;101743.91;;;15.86;32.47
21449;BME280;10885;52.830;13.788;2024-03-08T10:32:20;101739.34;;;15.97;34.76
21449;BME280;10885;52.830;13.788;2024-03-08T10:37:23;101732.06;;;16.05;34.36
21449;BME280;10885;52.830;13.788;2024-03-08T10:42:28;101733.13;;;15.79;36.09
21449;BME280;10885;52.830;13.788;2024-03-08T10:47:32;101719.59;;;16.13;33.40
21449;BME280;10885;52.830;13.788;2024-03-08T10:52:39;101713.97;;;16.05;32.61
21449;BME280;10885;52.830;13.788;2024-03-08T10:57:42;101722.88;;;15.95;32.83
21449;BME280;10885;52.830;13.788;2024-03-08T11:02:45;101707.31;;;16.08;31.54
21449;BME280;10885;52.830;13.788;2024-03-08T11:07:50;101695.38;;;16.10;32.05
21449;BME280;10885;52.830;13.788;2024-03-08T11:12:52;101690.81;;;15.91;31.43
21449;BME280;10885;52.830;13.788;2024-03-08T11:17:58;101682.41;;;15.94;33.60
21449;BME280;10885;52.830;13.788;2024-03-08T11:23:03;101670.06;;;15.45;32.99
21449;BME280;10885;52.830;13.788;2024-03-08T11:28:17;101672.56;;;15.44;33.38
21449;BME280;10885;52.830;13.788;2024-03-08T11:33:21;101659.97;;;15.78;31.80
21449;BME280;10885;52.830;13.788;2024-03-08T11:38:24;101657.16;;;16.05;31.06
21449;BME280;10885;52.830;13.788;2024-03-08T11:43:27;101650.25;;;15.89;31.05
21449;BME280;10885;52.830;13.788;2024-03-08T11:48:30;101640.91;;;15.76;30.51
21449;BME280;10885;52.830;13.788;2024-03-08T11:53:34;101632.75;;;15.68;30.18
21449;BME280;10885;52.830;13.788;2024-03-08T11:58:39;101628.38;;;15.82;30.06
21449;BME280;10885;52.830;13.788;2024-03-08T12:03:42;101626.88;;;16.17;29.96
21449;BME280;10885;52.830;13.788;2024-03-08T12:08:46;101619.38;;;15.76;30.03
21449;BME280;10885;52.830;13.788;2024-03-08T12:13:51;101612.97;;;15.39;29.52
21449;BME280;10885;52.830;13.788;2024-03-08T12:18:54;101609.22;;;15.49;28.86
21449;BME280;10885;52.830;13.788;2024-03-08T12:24:10;101593.38;;;15.28;29.86
21449;BME280;10885;52.830;13.788;2024-03-08T12:29:21;101600.44;;;15.30;29.77
21449;BME280;10885;52.830;13.788;2024-03-08T12:34:27;101592.22;;;15.08;29.87
21449;BME280;10885;52.830;13.788;2024-03-08T12:39:31;101588.22;;;15.28;28.89
21449;BME280;10885;52.830;13.788;2024-03-08T12:44:33;101583.16;;;15.00;29.52
21449;BME280;10885;52.830;13.788;2024-03-08T12:49:36;101570.59;;;14.91;30.05
21449;BME280;10885;52.830;13.788;2024-03-08T12:54:39;101568.00;;;14.76;29.99
21449;BME280;10885;52.830;13.788;2024-03-08T12:59:41;101550.56;;;14.72;30.01
21449;BME280;10885;52.830;13.788;2024-03-08T13:04:45;101541.28;;;14.89;29.71
21449;BME280;10885;52.830;13.788;2024-03-08T13:09:49;101537.78;;;14.73;29.73
21449;BME280;10885;52.830;13.788;2024-03-08T13:14:51;101532.41;;;15.13;29.89
21449;BME280;10885;52.830;13.788;2024-03-08T13:19:54;101523.50;;;15.23;29.85
21449;BME280;10885;52.830;13.788;2024-03-08T13:24:59;101518.06;;;14.74;29.54
21449;BME280;10885;52.830;13.788;2024-03-08T13:30:03;101503.16;;;14.83;29.45
21449;BME280;10885;52.830;13.788;2024-03-08T13:35:06;101510.31;;;15.33;28.74
21449;BME280;10885;52.830;13.788;2024-03-08T13:40:14;101495.22;;;15.25;28.57
21449;BME280;10885;52.830;13.788;2024-03-08T13:45:19;101487.69;;;14.83;28.75
21449;BME280;10885;52.830;13.788;2024-03-08T13:50:27;101483.59;;;15.02;29.26
21449;BME280;10885;52.830;13.788;2024-03-08T13:55:30;101485.00;;;14.82;28.85
21449;BME280;10885;52.830;13.788;2024-03-08T14:00:33;101477.75;;;14.18;30.08
21449;BME280;10885;52.830;13.788;2024-03-08T14:05:42;101474.81;;;13.70;30.64
21449;BME280;10885;52.830;13.788;2024-03-08T14:10:45;101465.13;;;13.66;30.42
21449;BME280;10885;52.830;13.788;2024-03-08T14:15:53;101467.09;;;13.84;30.62
21449;BME280;10885;52.830;13.788;2024-03-08T14:20:55;101451.31;;;13.38;30.30
21449;BME280;10885;52.830;13.788;2024-03-08T14:25:58;101448.16;;;13.15;30.90
21449;BME280;10885;52.830;13.788;2024-03-08T14:31:02;101439.84;;;12.92;30.96
21449;BME280;10885;52.830;13.788;2024-03-08T14:36:12;101438.06;;;12.91;31.72
21449;BME280;10885;52.830;13.788;2024-03-08T14:41:16;101422.78;;;12.81;31.19
21449;BME280;10885;52.830;13.788;2024-03-08T14:46:19;101421.03;;;12.80;31.71
21449;BME280;10885;52.830;13.788;2024-03-08T14:51:23;101417.88;;;12.46;32.71
21449;BME280;10885;52.830;13.788;2024-03-08T14:56:28;101405.91;;;12.33;33.11
21449;BME280;10885;52.830;13.788;2024-03-08T15:01:31;101414.19;;;12.29;33.60
21449;BME280;10885;52.830;13.788;2024-03-08T15:06:36;101402.47;;;12.07;32.90
21449;BME280;10885;52.830;13.788;2024-03-08T15:11:39;101398.47;;;11.74;33.84
21449;BME280;10885;52.830;13.788;2024-03-08T15:16:42;101393.91;;;11.70;34.46
21449;BME280;10885;52.830;13.788;2024-03-08T15:21:46;101378.56;;;11.58;34.89
21449;BME280;10885;52.830;13.788;2024-03-08T15:26:50;101381.97;;;11.33;35.57
21449;BME280;10885;52.830;13.788;2024-03-08T15:31:56;101374.13;;;11.44;35.06
21449;BME280;10885;52.830;13.788;2024-03-08T15:36:59;101363.69;;;11.41;35.40
21449;BME280;10885;52.830;13.788;2024-03-08T15:42:04;101361.75;;;11.26;36.03
21449;BME280;10885;52.830;13.788;2024-03-08T15:47:07;101359.78;;;11.10;35.86
21449;BME280;10885;52.830;13.788;2024-03-08T15:52:13;101355.03;;;11.03;36.39
21449;BME280;10885;52.830;13.788;2024-03-08T15:57:15;101353.22;;;10.79;36.48
21449;BME280;10885;52.830;13.788;2024-03-08T16:02:21;101348.91;;;10.66;35.92
21449;BME280;10885;52.830;13.788;2024-03-08T16:07:25;101354.53;;;10.38;37.27
21449;BME280;10885;52.830;13.788;2024-03-08T16:12:29;101344.84;;;10.22;37.20
21449;BME280;10885;52.830;13.788;2024-03-08T16:17:31;101347.03;;;10.06;37.21
21449;BME280;10885;52.830;13.788;2024-03-08T16:22:34;101336.59;;;9.81;38.29
21449;BME280;10885;52.830;13.788;2024-03-08T16:27:39;101339.50;;;9.63;38.53
21449;BME280;10885;52.830;13.788;2024-03-08T16:32:43;101333.78;;;9.44;38.86
21449;BME280;10885;52.830;13.788;2024-03-08T16:37:47;101337.50;;;9.27;40.30
21449;BME280;10885;52.830;13.788;2024-03-08T16:42:50;101328.31;;;8.96;41.41
21449;BME280;10885;52.830;13.788;2024-03-08T16:47:54;101323.81;;;8.72;41.96
21449;BME280;10885;52.830;13.788;2024-03-08T16:52:57;101326.28;;;8.50;42.46
21449;BME280;10885;52.830;13.788;2024-03-08T16:58:02;101326.97;;;8.27;42.33
21449;BME280;10885;52.830;13.788;2024-03-08T17:03:09;101315.72;;;8.04;43.39
21449;BME280;10885;52.830;13.788;2024-03-08T17:08:15;101324.81;;;7.90;43.76
21449;BME280;10885;52.830;13.788;2024-03-08T17:13:19;101321.56;;;7.62;44.47
21449;BME280;10885;52.830;13.788;2024-03-08T17:18:22;101315.56;;;7.41;45.59
21449;BME280;10885;52.830;13.788;2024-03-08T17:23:25;101318.69;;;7.28;45.34
21449;BME280;10885;52.830;13.788;2024-03-08T17:28:29;101312.00;;;7.10;46.13
21449;BME280;10885;52.830;13.788;2024-03-08T17:33:33;101316.66;;;6.95;46.44
21449;BME280;10885;52.830;13.788;2024-03-08T17:38:38;101310.06;;;6.78;47.36
21449;BME280;10885;52.830;13.788;2024-03-08T17:43:51;101315.94;;;6.58;47.68
21449;BME280;10885;52.830;13.788;2024-03-08T17:48:53;101303.91;;;6.47;47.94
21449;BME280;10885;52.830;13.788;2024-03-08T17:53:56;101310.09;;;6.40;47.57
21449;BME280;10885;52.830;13.788;2024-03-08T17:59:00;101293.94;;;6.21;48.40
21449;BME280;10885;52.830;13.788;2024-03-08T18:04:07;101297.78;;;6.07;48.94
21449;BME280;10885;52.830;13.788;2024-03-08T18:09:10;101295.00;;;5.95;49.13
21449;BME280;10885;52.830;13.788;2024-03-08T18:14:13;101301.03;;;5.87;48.16
21449;BME280;10885;52.830;13.788;2024-03-08T18:19:16;101298.97;;;5.83;49.20
21449;BME280;10885;52.830;13.788;2024-03-08T18:24:21;101298.91;;;5.72;48.55
21449;BME280;10885;52.830;13.788;2024-03-08T18:29:24;101300.56;;;5.63;50.20
21449;BME280;10885;52.830;13.788;2024-03-08T18:34:27;101299.31;;;5.49;49.69
21449;BME280;10885;52.830;13.788;2024-03-08T18:39:29;101302.63;;;5.39;49.39
21449;BME280;10885;52.830;13.788;2024-03-08T18:44:32;101302.97;;;5.34;49.48
21449;BME280;10885;52.830;13.788;2024-03-08T18:49:36;101307.59;;;5.29;49.94
21449;BME280;10885;52.830;13.788;2024-03-08T18:54:39;101310.28;;;5.31;49.22
21449;BME280;10885;52.830;13.788;2024-03-08T18:59:43;101294.91;;;5.29;49.45
21449;BME280;10885;52.830;13.788;2024-03-08T19:04:50;101293.88;;;5.27;49.61
21449;BME280;10885;52.830;13.788;2024-03-08T19:09:55;101300.91;;;5.21;49.13
21449;BME280;10885;52.830;13.788;2024-03-08T19:14:59;101296.91;;;5.14;50.08
21449;BME280;10885;52.830;13.788;2024-03-08T19:20:11;101294.06;;;5.11;50.25
21449;BME280;10885;52.830;13.788;2024-03-08T19:25:22;101288.72;;;5.08;50.21
21449;BME280;10885;52.830;13.788;2024-03-08T19:30:27;101294.56;;;4.98;51.24
21449;BME280;10885;52.830;13.788;2024-03-08T19:35:31;101292.81;;;4.89;52.19
21449;BME280;10885;52.830;13.788;2024-03-08T19:40:33;101283.13;;;4.76;52.66
21449;BME280;10885;52.830;13.788;2024-03-08T19:45:37;101281.22;;;4.65;53.27
21449;BME280;10885;52.830;13.788;2024-03-08T19:50:46;101290.63;;;4.57;53.56
21449;BME280;10885;52.830;13.788;2024-03-08T19:55:49;101286.59;;;4.50;54.34
21449;BME280;10885;52.830;13.788;2024-03-08T20:00:54;101284.66;;;4.48;54.38
21449;BME280;10885;52.830;13.788;2024-03-08T20:05:58;101284.50;;;4.37;54.99
21449;BME280;10885;52.830;13.788;2024-03-08T20:11:01;101278.41;;;4.27;55.89
21449;BME280;10885;52.830;13.788;2024-03-08T20:16:14;101272.59;;;4.19;55.91
21449;BME280;10885;52.830;13.788;2024-03-08T20:21:17;101272.28;;;4.16;56.50
21449;BME280;10885;52.830;13.788;2024-03-08T20:26:19;101265.56;;;4.08;56.92
21449;BME280;10885;52.830;13.788;2024-03-08T20:31:24;101255.59;;;4.01;57.00
21449;BME280;10885;52.830;13.788;2024-03-08T20:36:26;101254.97;;;3.94;57.39
21449;BME280;10885;52.830;13.788;2024-03-08T20:41:29;101254.97;;;3.86;57.47
21449;BME280;10885;52.830;13.788;2024-03-08T20:46:34;101250.34;;;3.73;58.59
21449;BME280;10885;52.830;13.788;2024-03-08T20:51:36;101249.88;;;3.68;59.23
21449;BME280;10885;52.830;13.788;2024-03-08T20:56:39;101245.84;;;3.62;58.82
21449;BME280;10885;52.830;13.788;2024-03-08T21:01:43;101237.97;;;3.67;58.55
21449;BME280;10885;52.830;13.788;2024-03-08T21:06:47;101236.16;;;3.49;59.38
21449;BME280;10885;52.830;13.788;2024-03-08T21:11:50;101230.59;;;3.35;59.84
21449;BME280;10885;52.830;13.788;2024-03-08T21:16:53;101237.56;;;3.29;61.05
21449;BME280;10885;52.830;13.788;2024-03-08T21:21:55;101218.50;;;3.24;61.17
21449;BME280;10885;52.830;13.788;2024-03-08T21:26:58;101220.25;;;3.16;61.17
21449;BME280;10885;52.830;13.788;2024-03-08T21:32:01;101213.09;;;3.12;62.51
21449;BME280;10885;52.830;13.788;2024-03-08T21:37:08;101201.06;;;3.10;61.88
21449;BME280;10885;52.830;13.788;2024-03-08T21:42:12;101199.56;;;3.03;61.39
21449;BME280;10885;52.830;13.788;2024-03-08T21:47:17;101189.38;;;2.94;62.28
21449;BME280;10885;52.830;13.788;2024-03-08T21:52:21;101179.41;;;2.87;62.36
21449;BME280;10885;52.830;13.788;2024-03-08T21:57:24;101179.69;;;2.82;63.07
21449;BME280;10885;52.830;13.788;2024-03-08T22:02:26;101172.81;;;2.81;63.29
21449;BME280;10885;52.830;13.788;2024-03-08T22:07:30;101176.53;;;2.75;63.09
21449;BME280;10885;52.830;13.788;2024-03-08T22:12:32;101174.72;;;2.74;63.01
21449;BME280;10885;52.830;13.788;2024-03-08T22:17:36;101163.56;;;2.72;63.65
21449;BME280;10885;52.830;13.788;2024-03-08T22:22:39;101165.63;;;2.68;63.00
21449;BME280;10885;52.830;13.788;2024-03-08T22:27:44;101162.63;;;2.63;63.17
